Flight Track Log - Related Links

Times and Time Zones

All times are in EDT time to prevent confusion due to time zone crossing. See the UAL4596 flight status page for this flight to view local times or setup timezone preferences in your user account.

Time Position Orientation Groundspeed Altitude Reporting Facility
EDT Latitude Longitude Course Direction KTS MPH feet Rate Location/Type
Thu 06:21:05 PM 40.6333 -74.2167 270° West 203 234 2,600  Level New TRACON
Thu 06:22:05 PM 40.6500 -74.3000 285° West 241 277 5,300 2,550 Climbing New TRACON
Thu 06:23:00 PM 40.7474 -74.6709 277° West  Level FlightAware
Thu 06:23:05 PM 40.6667 -74.4000 282° West 267 307 7,700  Level New TRACON
Thu 06:24:00 PM 40.7579 -74.8018 276° West  Level FlightAware
Thu 06:24:48 PM 40.6950 -74.5481 284° West 284 327 11,400  Level New Center
Thu 06:25:00 PM 40.7716 -74.9316 294° West  Level FlightAware
Thu 06:25:46 PM 40.7183 -74.6617 285° West 290 334 13,000  Level New Center
Thu 06:26:00 PM 40.7833 -75.0601 270° West  Level FlightAware
Thu 06:26:47 PM 40.7378 -74.7697 283° West 320 368 14,200  Level New Center
Thu 06:27:47 PM 40.7622 -74.9053 283° West 347 399 15,700 1,438 Climbing New Center
Thu 06:28:48 PM 40.7869 -75.0303 285° West 352 405 17,100 1,160 Climbing New Center
Thu 06:29:46 PM 40.7992 -75.1489 278° West 358 412 18,000 1,160 Climbing New Center
Thu 06:30:47 PM 40.7842 -75.2739 261° West 346 398 19,400 1,525 Climbing New Center
Thu 06:31:48 PM 40.7603 -75.4011 256° West 351 404 21,100 1,765 Climbing New Center
Thu 06:32:46 PM 40.7139 -75.5239 244° Southwest 351 404 22,900 1,765 Climbing New Center
Thu 06:33:47 PM 40.6739 -75.6361 245° Southwest 351 404 24,600 1,475 Climbing New Center
Thu 06:34:48 PM 40.6272 -75.7531 242° Southwest 351 404 25,900 1,140 Climbing New Center
Thu 06:36:00 PM 40.5686 -75.8901 241° Southwest  Level FlightAware
Thu 06:36:46 PM 40.5475 -75.9631 241° Southwest 346 398 28,000  Level New Center
Thu 06:37:47 PM 40.5003 -76.0850 243° Southwest 358 412 28,000  Level New Center
Thu 06:38:47 PM 40.4506 -76.2150 243° Southwest 384 442 28,000  Level New Center
Thu 06:39:47 PM 40.3983 -76.3525 244° Southwest 407 468 28,000 1,091 Level New Center
Thu 06:40:48 PM 40.3461 -76.4844 243° Southwest 414 476 30,200 2,083 Climbing New Center
Thu 06:41:48 PM 40.3011 -76.5978 243° Southwest 403 464 32,200 1,576 Climbing New Center
Thu 06:42:46 PM 40.2844 -76.7244 260° West 373 429 33,300 1,059 Climbing New Center
Thu 06:43:47 PM 40.2775 -76.8572 266° West 353 406 34,300 992 Climbing New Center
Thu 06:44:47 PM 40.2733 -76.9792 267° West 359 413 35,300 843 Climbing New Center
Thu 06:45:48 PM 40.2667 -77.1039 266° West 354 407 36,000 347 Climbing New Center
Thu 06:46:48 PM 40.2594 -77.2364 266° West 354 407 36,000  Level New Center
Thu 06:48:50 PM 40.2472 -77.5283 267° West 378 435 36,000  Level Cleveland Center
Thu 06:49:50 PM 40.2406 -77.6781 267° West 404 465 36,000  Level Cleveland Center
Thu 06:50:50 PM 40.2300 -77.8308 265° West 422 486 36,000  Level Cleveland Center
Thu 06:51:50 PM 40.2189 -77.9892 265° West 438 504 36,000  Level Cleveland Center
Thu 06:52:50 PM 40.2142 -78.1497 268° West 443 510 36,000  Level Cleveland Center
Thu 06:53:50 PM 40.2114 -78.3103 269° West 443 510 36,000  Level Cleveland Center
Thu 06:54:50 PM 40.2103 -78.4706 270° West 443 510 36,000  Level Cleveland Center
Thu 06:55:50 PM 40.2067 -78.6311 268° West 443 510 36,000  Level Cleveland Center
Thu 06:56:50 PM 40.2031 -78.7917 268° West 443 510 36,000  Level Cleveland Center
Thu 06:57:50 PM 40.2014 -78.9522 269° West 443 510 36,000  Level Cleveland Center
Thu 06:58:50 PM 40.1972 -79.1125 268° West 443 510 36,000  Level Cleveland Center
Thu 06:59:50 PM 40.1953 -79.2731 269° West 443 510 36,000  Level Cleveland Center
Thu 07:00:50 PM 40.1928 -79.4525 269° West 443 510 36,000  Level Cleveland Center
Thu 07:01:50 PM 40.1903 -79.6100 269° West 443 510 36,000  Level Cleveland Center
Thu 07:02:50 PM 40.1850 -79.7625 267° West 443 510 36,000  Level Cleveland Center
Thu 07:03:50 PM 40.1800 -79.9200 268° West 443 510 36,000  Level Cleveland Center
Thu 07:04:50 PM 40.1744 -80.0778 267° West 443 510 36,000  Level Cleveland Center
Thu 07:05:50 PM 40.1689 -80.2353 267° West 443 510 36,000  Level Cleveland Center
Thu 07:07:52 PM 40.1581 -80.5403 267° West 431 496 36,000  Level Indianapolis Center
Thu 07:08:53 PM 40.1533 -80.6958 268° West 426 490 36,000  Level Indianapolis Center
Thu 07:09:55 PM 40.1481 -80.8525 268° West 428 493 36,000  Level Indianapolis Center
Thu 07:10:56 PM 40.1428 -81.0069 267° West 423 487 36,000  Level Indianapolis Center
Thu 07:11:58 PM 40.1364 -81.1611 267° West 422 486 36,000  Level Indianapolis Center
Thu 07:12:59 PM 40.1300 -81.3131 267° West 415 478 36,000  Level Indianapolis Center
Thu 07:14:01 PM 40.1244 -81.4644 267° West 414 476 36,000  Level Indianapolis Center
Thu 07:15:02 PM 40.1175 -81.6128 267° West 407 468 36,000  Level Indianapolis Center
Thu 07:16:04 PM 40.1111 -81.7856 267° West 410 472 36,000  Level Indianapolis Center
Thu 07:17:05 PM 40.1033 -81.9356 266° West 410 472 36,000  Level Indianapolis Center
Thu 07:18:07 PM 40.0972 -82.0850 267° West 409 471 36,000  Level Indianapolis Center
Thu 07:19:08 PM 40.0903 -82.2314 266° West 402 463 36,000  Level Indianapolis Center
Thu 07:20:10 PM 40.0831 -82.3783 266° West 404 465 36,000  Level Indianapolis Center
Thu 07:21:11 PM 40.0750 -82.5247 266° West 401 461 36,000  Level Indianapolis Center
Thu 07:22:13 PM 40.0681 -82.6711 266° West 400 460 36,000  Level Indianapolis Center
Thu 07:23:14 PM 40.0603 -82.8172 266° West 401 461 36,000  Level Indianapolis Center
Thu 07:24:16 PM 40.0525 -82.9625 266° West 399 459 36,000  Level Indianapolis Center
Thu 07:25:17 PM 40.0444 -83.1061 266° West 397 457 36,000  Level Indianapolis Center
Thu 07:26:19 PM 40.0364 -83.2489 266° West 394 453 36,000  Level Indianapolis Center
Thu 07:27:20 PM 40.0275 -83.4147 266° West 393 452 36,000  Level Indianapolis Center
Thu 07:28:22 PM 40.0186 -83.5553 265° West 391 450 36,000  Level Indianapolis Center
Thu 07:29:23 PM 40.0097 -83.6950 265° West 389 448 36,000  Level Indianapolis Center
Thu 07:30:24 PM 40.0011 -83.8367 266° West 392 451 36,000  Level Indianapolis Center
Thu 07:31:26 PM 39.9917 -83.9742 265° West 380 437 36,000  Level Indianapolis Center
Thu 07:32:27 PM 39.9831 -84.1078 265° West 369 425 36,000  Level Indianapolis Center
Thu 07:33:28 PM 39.9756 -84.2403 266° West 365 420 36,000 -49 Level Indianapolis Center
Thu 07:34:30 PM 39.9667 -84.3747 265° West 369 425 35,900  Descending Indianapolis Center
Thu 07:35:31 PM 39.9569 -84.5122 265° West 377 434 36,000 49 Climbing Indianapolis Center
Thu 07:36:32 PM 39.9447 -84.6772 265° West 389 448 36,000  Level Indianapolis Center
Thu 07:37:34 PM 39.9342 -84.8200 265° West 392 451 36,000  Level Indianapolis Center
Thu 07:38:35 PM 39.9247 -84.9614 265° West 389 448 36,000  Level Indianapolis Center
Thu 07:39:36 PM 39.9117 -85.1000 263° West 384 442 36,000  Level Indianapolis Center
Thu 07:40:38 PM 39.8892 -85.2311 257° West 370 426 36,000  Level Indianapolis Center
Thu 07:41:39 PM 39.8675 -85.3611 258° West 366 421 36,000 -49 Level Indianapolis Center
Thu 07:42:40 PM 39.8453 -85.4908 257° West 365 420 35,900  Descending Indianapolis Center
Thu 07:43:42 PM 39.8236 -85.6219 258° West 366 421 36,000 49 Climbing Indianapolis Center
Thu 07:44:43 PM 39.8019 -85.7525 258° West 367 422 36,000  Level Indianapolis Center
Thu 07:45:44 PM 39.7794 -85.8839 257° West 369 425 36,000  Level Indianapolis Center
Thu 07:46:46 PM 39.7592 -86.0089 258° West 372 428 36,000  Level Indianapolis Center
Thu 07:47:47 PM 39.7606 -86.1739 271° West 387 445 36,000  Level Indianapolis Center
Thu 07:48:49 PM 39.7725 -86.3125 276° West 387 445 36,000  Level Indianapolis Center
Thu 07:49:50 PM 39.7592 -86.4439 263° West 372 428 36,000  Level Indianapolis Center
Thu 07:50:51 PM 39.7308 -86.5719 254° West 366 421 36,000  Level Indianapolis Center
Thu 07:51:53 PM 39.7025 -86.6986 254° West 365 420 36,000  Level Indianapolis Center
Thu 07:52:54 PM 39.6736 -86.8250 253° West 364 419 36,000  Level Indianapolis Center
Thu 07:53:55 PM 39.6447 -86.9539 254° West 370 426 36,000  Level Indianapolis Center
Thu 07:54:57 PM 39.6167 -87.0797 254° West 365 420 36,000  Level Indianapolis Center
Thu 07:55:58 PM 39.5883 -87.2050 254° West 362 417 36,000  Level Indianapolis Center
Thu 07:57:00 PM 39.5600 -87.3253 253° West 352 405 36,000  Level Indianapolis Center
Thu 07:58:01 PM 39.5319 -87.4433 253° West 343 395 36,000  Level Indianapolis Center
Thu 07:59:02 PM 39.5000 -87.5850 254° West 340 391 36,000  Level Indianapolis Center
Thu 08:00:03 PM 39.4719 -87.7011 253° West 338 389 36,000 -293 Level Indianapolis Center
Thu 08:01:05 PM 39.4453 -87.8164 253° West 335 386 35,400 -1,046 Descending Indianapolis Center
Thu 08:01:52 PM 39.4247 -87.9122 255° West 337 388 34,100 -1,527 Descending Kansas Center
Thu 08:02:55 PM 39.3942 -88.0411 253° West 351 404 32,600 -1,463 Descending Kansas Center
Thu 08:03:55 PM 39.3578 -88.1750 251° West 372 428 31,100 -1,525 Descending Kansas Center
Thu 08:04:57 PM 39.3219 -88.3083 251° West 387 445 29,500 -1,512 Descending Kansas Center
Thu 08:05:58 PM 39.2867 -88.4425 251° West 392 451 28,000 -1,488 Descending Kansas Center
Thu 08:07:02 PM 39.2506 -88.5792 251° West 398 458 26,400 -1,584 Descending Kansas Center
Thu 08:08:03 PM 39.2103 -88.7256 250° West 402 463 24,700 -1,623 Descending Kansas Center
Thu 08:09:04 PM 39.1764 -88.8550 251° West 389 448 23,100 -1,645 Descending Kansas Center
Thu 08:10:07 PM 39.1367 -88.9992 250° West 378 435 21,300 -2,016 Descending Kansas Center
Thu 08:11:09 PM 39.1047 -89.1231 252° West 367 422 18,900 -2,600 Descending Kansas Center
Thu 08:12:07 PM 39.0775 -89.1794 238° Southwest 339 390 16,100 -2,962 Descending FAA TRACON
Thu 08:12:28 PM 39.0675 -89.2242 254° West 340 391 15,000 -2,780 Descending FAA TRACON
Thu 08:12:48 PM 39.0600 -89.2606 255° West 341 392 14,200 -2,462 Descending FAA TRACON
Thu 08:13:07 PM 39.0494 -89.2967 249° West 347 399 13,400 -2,615 Descending FAA TRACON
Thu 08:13:27 PM 39.0400 -89.3431 255° West 351 404 12,500 -2,488 Descending FAA TRACON
Thu 08:13:48 PM 39.0306 -89.3792 251° West 348 400 11,700 -1,650 Descending FAA TRACON
Thu 08:14:07 PM 39.0225 -89.4147 254° West 339 390 11,400 -1,077 Descending FAA TRACON
Thu 08:14:27 PM 39.0122 -89.4572 253° West 326 375 11,000 -585 Descending FAA TRACON
Thu 08:14:48 PM 39.0044 -89.4906 253° West 319 367 11,000  Level FAA TRACON
Thu 08:15:07 PM 38.9975 -89.5247 255° West 319 367 11,000  Level FAA TRACON
Thu 08:15:27 PM 38.9797 -89.5611 238° Southwest 315 362 11,000  Level FAA TRACON
Thu 08:15:48 PM 38.9606 -89.5842 223° Southwest 312 359 11,000 -150 Level FAA TRACON
Thu 08:16:07 PM 38.9417 -89.6072 224° Southwest 306 352 10,900  Descending FAA TRACON
Thu 08:16:27 PM 38.9167 -89.6347 221° Southwest 303 349 11,000 146 Climbing FAA TRACON
Thu 08:16:48 PM 38.8978 -89.6572 223° Southwest 300 345 11,000  Level FAA TRACON
Thu 08:17:08 PM 38.8783 -89.6792 221° Southwest 302 348 11,000 -462 Level FAA TRACON
Thu 08:17:27 PM 38.8553 -89.7050 221° Southwest 293 337 10,700 -923 Descending FAA TRACON
Thu 08:17:47 PM 38.8389 -89.7239 222° Southwest 273 314 10,400 -1,024 Descending FAA TRACON
Thu 08:18:08 PM 38.8219 -89.7419 220° Southwest 256 295 10,000 -1,200 Descending FAA TRACON
Thu 08:18:27 PM 38.8042 -89.7631 223° Southwest 236 272 9,600 -1,231 Descending FAA TRACON
Thu 08:18:47 PM 38.7903 -89.7794 223° Southwest 224 258 9,200 -1,317 Descending FAA TRACON
Thu 08:19:08 PM 38.7811 -89.8008 241° Southwest 220 253 8,700 -2,100 Descending FAA TRACON
Thu 08:19:27 PM 38.7725 -89.8283 248° West 217 250 7,800 -2,615 Descending FAA TRACON
Thu 08:19:47 PM 38.7650 -89.8503 246° West 219 252 7,000 -2,195 Descending FAA TRACON
Thu 08:20:08 PM 38.7569 -89.8725 245° Southwest 220 253 6,300 -2,341 Descending FAA TRACON
Thu 08:20:28 PM 38.7467 -89.9006 245° Southwest 224 258 5,400 -2,308 Descending FAA TRACON
Thu 08:20:47 PM 38.7389 -89.9231 246° West 225 259 4,800 -1,692 Descending FAA TRACON
Thu 08:21:07 PM 38.7311 -89.9461 247° West 229 264 4,300 -1,610 Descending FAA TRACON
Thu 08:21:28 PM 38.7178 -89.9750 239° Southwest 242 278 3,700 -1,200 Descending FAA TRACON
Thu 08:21:47 PM 38.7067 -89.9972 237° Southwest 240 276 3,500 -308 Descending FAA TRACON
Thu 08:22:07 PM 38.6958 -90.0183 237° Southwest 235 270 3,500  Level FAA TRACON
Thu 08:22:28 PM 38.6828 -90.0447 238° Southwest 231 266 3,500 -146 Level FAA TRACON
Thu 08:22:48 PM 38.6725 -90.0658 238° Southwest 227 261 3,400 -462 Descending FAA TRACON
Thu 08:23:07 PM 38.6625 -90.0872 239° Southwest 228 262 3,200 -615 Descending FAA TRACON
Thu 08:23:27 PM 38.6597 -90.1103 261° West 224 258 3,000 -293 Descending FAA TRACON
Thu 08:23:48 PM 38.6633 -90.1383 279° West 215 247 3,000 -150 Level FAA TRACON
Thu 08:24:07 PM 38.6717 -90.1586 298° West 211 243 2,900 -316 Descending FAA TRACON

Login

Don't have an account? Register now (free) for customized features, flight alerts, and more!